EDDM/MUC METAR and TAF weather

Enter ICAO airport designator
Station Type Date Time Source
EDDM METAR 2018/07/19 07:20 UTC NOAA

EDDM 190720Z 06005KT 020V090 CAVOK 20/12 Q1018 NOSIG


Station Type Date Time Source
EDDM Decoded METAR 2018/07/19 07:20 UTC NOAA

Munchen, Germany (EDDM) 48-21N 011-47E
Jul 19, 2018 - 03:20 AM EDT / 2018.07.19 0720 UTC
Wind: from the ENE (060 degrees) at 6 MPH (5 KT) (direction variable):0
Visibility: greater than 7 mile(s):0
Temperature: 68 F (20 C)
Dew Point: 53 F (12 C)
Relative Humidity: 59%
Pressure (altimeter): 30.06 in. Hg (1018 hPa)
ob: EDDM 190720Z 06005KT 020V090 CAVOK 20/12 Q1018 NOSIG
cycle: 7

Station Type Date Time Source
EDDM TAF 2018/07/19 06:27 UTC NOAA

TAF EDDM 190500Z 1906/2012 03004KT CAVOK
BECMG 1911/1913 33005KT
BECMG 1917/1919 VRB03KT
BECMG 2007/2009 08005KT


Example: see airport list